PWSweather.com
Personal Weather Stations
Station Observations
UWIDEPER1
Brown County, Depere, WI 54115

Brown CountyDepere, WI 54115

Lat: 44.44, Lon: -88.05

Elevation: 610

Station Type: Acurite 5in1

www.depereweather.com

High Low Average
Temperature 35.1°F1.7°C 28.2°F-2.1°C 32.2°F0.1°C
Dew Point 34.6°F1.4°C 27.0°F-2.8°C 31.4°F-0.3°C
Winds 10.4 mph 16.7 kmh 2.3 mph 3.7 kmh 6.0 mph ENE9.7 kmh ENE
Wind Gusts 19.6 mph31.5 kmh 3.5 mph5.6 kmh 8.0 mph12.9 kmh
Humidity 98% 95% 97%
Pressure 29.97 in1014.9 mb 29.55 in1000.7 mb -
Precipitation 0.52 in13.2 mm - -
Hour Temp Dew Point Humidity Winds Wind Gusts Pressure Precip Precip Rate Daily Precip Total
12:00 AM 31.8°F-0.1°C 30.8°F-0.7°C 96% 4.6 mph 7.4 kmh 3.5 mph5.6 kmh 29.96 in1014.6 mb - 0.00 in0.0 mm 0.00 in0.0 mm
12:10 AM 32.2°F0.1°C 31.2°F-0.4°C 96% 2.3 mph NNE3.7 kmh NNE 3.5 mph5.6 kmh 29.97 in1014.9 mb - 0.00 in0.0 mm 0.00 in0.0 mm
12:15 AM 32.2°F0.1°C 31.2°F-0.4°C 96% 3.5 mph N5.6 kmh N 3.5 mph5.6 kmh 29.97 in1014.9 mb - 0.00 in0.0 mm 0.00 in0.0 mm
12:20 AM 32.2°F0.1°C 31.2°F-0.4°C 96% 3.5 mph NNE5.6 kmh NNE 3.5 mph5.6 kmh 29.97 in1014.9 mb - 0.00 in0.0 mm 0.00 in0.0 mm
12:25 AM 32.2°F0.1°C 31.2°F-0.4°C 96% 3.5 mph NNE5.6 kmh NNE 3.5 mph5.6 kmh 29.96 in1014.6 mb - 0.00 in0.0 mm 0.00 in0.0 mm
12:30 AM 32.4°F0.2°C 31.3°F-0.4°C 96% 3.5 mph N5.6 kmh N 4.6 mph7.4 kmh 29.95 in1014.2 mb - 0.00 in0.0 mm 0.00 in0.0 mm
12:35 AM 32.4°F0.2°C 31.3°F-0.4°C 96% 3.5 mph N5.6 kmh N 3.5 mph5.6 kmh 29.95 in1014.2 mb - 0.00 in0.0 mm 0.00 in0.0 mm
12:40 AM 32.4°F0.2°C 31.3°F-0.4°C 96% 3.5 mph NE5.6 kmh NE 6.9 mph11.1 kmh 29.95 in1014.2 mb - 0.00 in0.0 mm 0.00 in0.0 mm
12:45 AM 32.5°F0.3°C 31.5°F-0.3°C 96% 4.6 mph NE7.4 kmh NE 6.9 mph11.1 kmh 29.95 in1014.2 mb - 0.00 in0.0 mm 0.00 in0.0 mm
12:50 AM 32.5°F0.3°C 31.5°F-0.3°C 96% 3.5 mph NNE5.6 kmh NNE 3.5 mph5.6 kmh 29.95 in1014.2 mb - 0.00 in0.0 mm 0.00 in0.0 mm
12:55 AM 32.5°F0.3°C 31.5°F-0.3°C 96% 3.5 mph N5.6 kmh N 3.5 mph5.6 kmh 29.95 in1014.2 mb - 0.00 in0.0 mm 0.00 in0.0 mm
01:00 AM 32.5°F0.3°C 31.5°F-0.3°C 96% 3.5 mph NE5.6 kmh NE 3.5 mph5.6 kmh 29.95 in1014.2 mb - 0.00 in0.0 mm 0.00 in0.0 mm
01:10 AM 32.5°F0.3°C 31.5°F-0.3°C 96% 3.5 mph NNE5.6 kmh NNE 3.5 mph5.6 kmh 29.95 in1014.2 mb - 0.00 in0.0 mm 0.00 in0.0 mm
01:15 AM 32.5°F0.3°C 31.5°F-0.3°C 96% 3.5 mph NNE5.6 kmh NNE 4.6 mph7.4 kmh 29.95 in1014.2 mb - 0.00 in0.0 mm 0.00 in0.0 mm
01:20 AM 32.5°F0.3°C 31.5°F-0.3°C 96% 4.6 mph N7.4 kmh N 5.8 mph9.3 kmh 29.95 in1014.2 mb - 0.00 in0.0 mm 0.00 in0.0 mm
01:25 AM 32.5°F0.3°C 31.5°F-0.3°C 96% 3.5 mph NE5.6 kmh NE 5.8 mph9.3 kmh 29.94 in1013.9 mb - 0.00 in0.0 mm 0.00 in0.0 mm
01:30 AM 32.5°F0.3°C 31.5°F-0.3°C 96% 4.6 mph NE7.4 kmh NE 3.5 mph5.6 kmh 29.94 in1013.9 mb - 0.00 in0.0 mm 0.00 in0.0 mm
01:35 AM 32.5°F0.3°C 31.5°F-0.3°C 96% 3.5 mph E5.6 kmh E 3.5 mph5.6 kmh 29.95 in1014.2 mb - 0.00 in0.0 mm 0.00 in0.0 mm
01:40 AM 32.5°F0.3°C 31.5°F-0.3°C 96% 3.5 mph NE5.6 kmh NE 8.1 mph13.0 kmh 29.93 in1013.5 mb - 0.00 in0.0 mm 0.00 in0.0 mm
01:45 AM 32.5°F0.3°C 31.5°F-0.3°C 96% 3.5 mph NE5.6 kmh NE 5.8 mph9.3 kmh 29.93 in1013.5 mb - 0.00 in0.0 mm 0.00 in0.0 mm
01:50 AM 32.5°F0.3°C 31.5°F-0.3°C 96% 3.5 mph NW5.6 kmh NW 4.6 mph7.4 kmh 29.95 in1014.2 mb - 0.00 in0.0 mm 0.00 in0.0 mm
01:55 AM 32.5°F0.3°C 31.5°F-0.3°C 96% 3.5 mph NNE5.6 kmh NNE 3.5 mph5.6 kmh 29.93 in1013.5 mb - 0.00 in0.0 mm 0.00 in0.0 mm
02:00 AM 32.5°F0.3°C 31.5°F-0.3°C 96% 4.6 mph N7.4 kmh N 4.6 mph7.4 kmh 29.95 in1014.2 mb - 0.00 in0.0 mm 0.00 in0.0 mm
02:10 AM 32.5°F0.3°C 31.5°F-0.3°C 96% 4.6 mph NE7.4 kmh NE 5.8 mph9.3 kmh 29.95 in1014.2 mb - 0.01 in0.3 mm 0.01 in0.3 mm
02:15 AM 32.5°F0.3°C 31.5°F-0.3°C 96% 5.8 mph NE9.3 kmh NE 5.8 mph9.3 kmh 29.95 in1014.2 mb - 0.00 in0.0 mm 0.01 in0.3 mm
02:20 AM 32.5°F0.3°C 31.5°F-0.3°C 96% 4.6 mph NE7.4 kmh NE 5.8 mph9.3 kmh 29.95 in1014.2 mb - 0.00 in0.0 mm 0.01 in0.3 mm
02:25 AM 32.5°F0.3°C 31.5°F-0.3°C 96% 5.8 mph NNE9.3 kmh NNE 6.9 mph11.1 kmh 29.94 in1013.9 mb - 0.00 in0.0 mm 0.01 in0.3 mm
02:30 AM 32.5°F0.3°C 31.5°F-0.3°C 96% 5.8 mph N9.3 kmh N 6.9 mph11.1 kmh 29.95 in1014.2 mb - 0.00 in0.0 mm 0.01 in0.3 mm
02:35 AM 32.5°F0.3°C 31.5°F-0.3°C 96% 3.5 mph NE5.6 kmh NE 4.6 mph7.4 kmh 29.95 in1014.2 mb - 0.00 in0.0 mm 0.01 in0.3 mm
02:40 AM 32.5°F0.3°C 31.5°F-0.3°C 96% 4.6 mph N7.4 kmh N 10.4 mph16.7 kmh 29.95 in1014.2 mb - 0.00 in0.0 mm 0.01 in0.3 mm
02:45 AM 32.5°F0.3°C 31.5°F-0.3°C 96% 4.6 mph NNE7.4 kmh NNE 5.8 mph9.3 kmh 29.95 in1014.2 mb - 0.00 in0.0 mm 0.01 in0.3 mm
02:50 AM 32.5°F0.3°C 32.0°F0.0°C 98% 5.8 mph N9.3 kmh N 4.6 mph7.4 kmh 29.95 in1014.2 mb - 0.00 in0.0 mm 0.01 in0.3 mm
02:55 AM 32.5°F0.3°C 32.0°F0.0°C 98% 4.6 mph NW7.4 kmh NW 9.2 mph14.8 kmh 29.94 in1013.9 mb - 0.00 in0.0 mm 0.01 in0.3 mm
03:00 AM 32.5°F0.3°C 32.0°F0.0°C 98% 5.8 mph NNE9.3 kmh NNE 3.5 mph5.6 kmh 29.94 in1013.9 mb - 0.00 in0.0 mm 0.01 in0.3 mm
03:10 AM 32.5°F0.3°C 32.0°F0.0°C 98% 4.6 mph NNE7.4 kmh NNE 8.1 mph13.0 kmh 29.94 in1013.9 mb - 0.00 in0.0 mm 0.01 in0.3 mm
03:15 AM 32.5°F0.3°C 32.0°F0.0°C 98% 5.8 mph N9.3 kmh N 6.9 mph11.1 kmh 29.93 in1013.5 mb - 0.00 in0.0 mm 0.01 in0.3 mm
03:20 AM 32.5°F0.3°C 32.0°F0.0°C 98% 4.6 mph NNE7.4 kmh NNE 5.8 mph9.3 kmh 29.93 in1013.5 mb - 0.00 in0.0 mm 0.01 in0.3 mm
03:25 AM 32.5°F0.3°C 32.0°F0.0°C 98% 4.6 mph N7.4 kmh N 6.9 mph11.1 kmh 29.93 in1013.5 mb - 0.00 in0.0 mm 0.01 in0.3 mm
03:30 AM 32.5°F0.3°C 32.0°F0.0°C 98% 5.8 mph NE9.3 kmh NE 8.1 mph13.0 kmh 29.93 in1013.5 mb - 0.00 in0.0 mm 0.01 in0.3 mm
03:35 AM 32.5°F0.3°C 32.0°F0.0°C 98% 5.8 mph NNE9.3 kmh NNE 6.9 mph11.1 kmh 29.92 in1013.2 mb - 0.00 in0.0 mm 0.01 in0.3 mm
03:40 AM 32.5°F0.3°C 32.0°F0.0°C 98% 4.6 mph N7.4 kmh N 3.5 mph5.6 kmh 29.92 in1013.2 mb - 0.00 in0.0 mm 0.01 in0.3 mm
03:45 AM 32.5°F0.3°C 32.0°F0.0°C 98% 5.8 mph NNE9.3 kmh NNE 8.1 mph13.0 kmh 29.91 in1012.9 mb - 0.00 in0.0 mm 0.01 in0.3 mm
03:50 AM 32.5°F0.3°C 32.0°F0.0°C 98% 5.8 mph NNE9.3 kmh NNE 5.8 mph9.3 kmh 29.91 in1012.9 mb - 0.00 in0.0 mm 0.01 in0.3 mm
03:55 AM 32.5°F0.3°C 32.0°F0.0°C 98% 5.8 mph ENE9.3 kmh ENE 6.9 mph11.1 kmh 29.90 in1012.5 mb - 0.00 in0.0 mm 0.01 in0.3 mm
04:00 AM 32.5°F0.3°C 32.0°F0.0°C 98% 4.6 mph NE7.4 kmh NE 8.1 mph13.0 kmh 29.91 in1012.9 mb - 0.00 in0.0 mm 0.01 in0.3 mm
04:10 AM 32.5°F0.3°C 32.0°F0.0°C 98% 4.6 mph NNE7.4 kmh NNE 5.8 mph9.3 kmh 29.91 in1012.9 mb - 0.00 in0.0 mm 0.01 in0.3 mm
04:15 AM 32.5°F0.3°C 32.0°F0.0°C 98% 5.8 mph NE9.3 kmh NE 4.6 mph7.4 kmh 29.90 in1012.5 mb - 0.00 in0.0 mm 0.01 in0.3 mm
04:20 AM 32.4°F0.2°C 31.9°F-0.1°C 98% 4.6 mph N7.4 kmh N 4.6 mph7.4 kmh 29.90 in1012.5 mb - 0.00 in0.0 mm 0.01 in0.3 mm
04:25 AM 32.4°F0.2°C 31.9°F-0.1°C 98% 5.8 mph NNW9.3 kmh NNW 9.2 mph14.8 kmh 29.90 in1012.5 mb - 0.00 in0.0 mm 0.01 in0.3 mm
04:30 AM 32.4°F0.2°C 31.9°F-0.1°C 98% 4.6 mph N7.4 kmh N 6.9 mph11.1 kmh 29.89 in1012.2 mb - 0.00 in0.0 mm 0.01 in0.3 mm
04:35 AM 32.4°F0.2°C 31.9°F-0.1°C 98% 4.6 mph ENE7.4 kmh ENE 4.6 mph7.4 kmh 29.89 in1012.2 mb - 0.00 in0.0 mm 0.01 in0.3 mm
04:40 AM 32.4°F0.2°C 31.9°F-0.1°C 98% 4.6 mph NNE7.4 kmh NNE 3.5 mph5.6 kmh 29.89 in1012.2 mb - 0.00 in0.0 mm 0.01 in0.3 mm
04:45 AM 32.4°F0.2°C 31.9°F-0.1°C 98% 5.8 mph N9.3 kmh N 6.9 mph11.1 kmh 29.89 in1012.2 mb - 0.00 in0.0 mm 0.01 in0.3 mm
04:50 AM 32.4°F0.2°C 31.9°F-0.1°C 98% 8.1 mph N13.0 kmh N 8.1 mph13.0 kmh 29.88 in1011.9 mb - 0.00 in0.0 mm 0.01 in0.3 mm
04:55 AM 32.4°F0.2°C 31.9°F-0.1°C 98% 8.1 mph N13.0 kmh N 9.2 mph14.8 kmh 29.88 in1011.9 mb - 0.00 in0.0 mm 0.01 in0.3 mm
05:00 AM 32.4°F0.2°C 31.9°F-0.1°C 98% 5.8 mph NNE9.3 kmh NNE 5.8 mph9.3 kmh 29.89 in1012.2 mb - 0.00 in0.0 mm 0.01 in0.3 mm
05:10 AM 32.4°F0.2°C 31.9°F-0.1°C 98% 5.8 mph NE9.3 kmh NE 9.2 mph14.8 kmh 29.88 in1011.9 mb - 0.00 in0.0 mm 0.01 in0.3 mm
05:15 AM 32.4°F0.2°C 31.9°F-0.1°C 98% 5.8 mph NNE9.3 kmh NNE 10.4 mph16.7 kmh 29.88 in1011.9 mb - 0.01 in0.3 mm 0.02 in0.5 mm
05:20 AM 32.4°F0.2°C 31.9°F-0.1°C 98% 4.6 mph NNE7.4 kmh NNE 10.4 mph16.7 kmh 29.88 in1011.9 mb - 0.00 in0.0 mm 0.02 in0.5 mm
05:25 AM 32.4°F0.2°C 31.9°F-0.1°C 98% 5.8 mph NE9.3 kmh NE 4.6 mph7.4 kmh 29.88 in1011.9 mb - 0.01 in0.3 mm 0.03 in0.8 mm
05:30 AM 32.4°F0.2°C 31.9°F-0.1°C 98% 4.6 mph NE7.4 kmh NE 8.1 mph13.0 kmh 29.88 in1011.9 mb - 0.01 in0.3 mm 0.04 in1.0 mm
05:35 AM 32.4°F0.2°C 31.9°F-0.1°C 98% 5.8 mph NE9.3 kmh NE 8.1 mph13.0 kmh 29.88 in1011.9 mb - 0.01 in0.3 mm 0.05 in1.3 mm
05:40 AM 32.4°F0.2°C 31.9°F-0.1°C 98% 5.8 mph NE9.3 kmh NE 8.1 mph13.0 kmh 29.88 in1011.9 mb - 0.01 in0.3 mm 0.05 in1.3 mm
05:45 AM 32.5°F0.3°C 32.0°F0.0°C 98% 5.8 mph NE9.3 kmh NE 10.4 mph16.7 kmh 29.87 in1011.5 mb - 0.01 in0.3 mm 0.06 in1.5 mm
05:50 AM 32.5°F0.3°C 32.0°F0.0°C 98% 5.8 mph NE9.3 kmh NE 11.5 mph18.5 kmh 29.88 in1011.9 mb - 0.01 in0.3 mm 0.06 in1.5 mm
05:55 AM 32.5°F0.3°C 32.0°F0.0°C 98% 5.8 mph NNE9.3 kmh NNE 8.1 mph13.0 kmh 29.88 in1011.9 mb - 0.00 in0.0 mm 0.06 in1.5 mm
06:00 AM 32.5°F0.3°C 32.0°F0.0°C 98% 5.8 mph N9.3 kmh N 11.5 mph18.5 kmh 29.87 in1011.5 mb - 0.00 in0.0 mm 0.06 in1.5 mm
06:10 AM 32.5°F0.3°C 32.0°F0.0°C 98% 8.1 mph NE13.0 kmh NE 10.4 mph16.7 kmh 29.86 in1011.2 mb - 0.00 in0.0 mm 0.06 in1.5 mm
06:15 AM 32.5°F0.3°C 32.0°F0.0°C 98% 6.9 mph N11.1 kmh N 9.2 mph14.8 kmh 29.86 in1011.2 mb - 0.01 in0.3 mm 0.07 in1.8 mm
06:20 AM 32.5°F0.3°C 32.0°F0.0°C 98% 8.1 mph NE13.0 kmh NE 12.7 mph20.4 kmh 29.86 in1011.2 mb - 0.01 in0.3 mm 0.07 in1.8 mm
06:25 AM 32.5°F0.3°C 32.0°F0.0°C 98% 8.1 mph ENE13.0 kmh ENE 11.5 mph18.5 kmh 29.86 in1011.2 mb - 0.00 in0.0 mm 0.07 in1.8 mm
06:30 AM 32.4°F0.2°C 31.9°F-0.1°C 98% 6.9 mph NNE11.1 kmh NNE 12.7 mph20.4 kmh 29.85 in1010.8 mb - 0.00 in0.0 mm 0.07 in1.8 mm
06:35 AM 32.4°F0.2°C 31.9°F-0.1°C 98% 5.8 mph NNE9.3 kmh NNE 5.8 mph9.3 kmh 29.84 in1010.5 mb - 0.01 in0.3 mm 0.08 in2.0 mm
06:40 AM 32.4°F0.2°C 31.9°F-0.1°C 98% 6.9 mph NNE11.1 kmh NNE 10.4 mph16.7 kmh 29.84 in1010.5 mb - 0.01 in0.3 mm 0.08 in2.0 mm
06:45 AM 32.4°F0.2°C 31.9°F-0.1°C 98% 9.2 mph N14.8 kmh N 15.0 mph24.1 kmh 29.83 in1010.2 mb - 0.01 in0.3 mm 0.09 in2.3 mm
06:50 AM 32.4°F0.2°C 31.9°F-0.1°C 98% 8.1 mph NNE13.0 kmh NNE 10.4 mph16.7 kmh 29.83 in1010.2 mb - 0.01 in0.3 mm 0.09 in2.3 mm
06:55 AM 32.4°F0.2°C 31.9°F-0.1°C 98% 6.9 mph NE11.1 kmh NE 11.5 mph18.5 kmh 29.83 in1010.2 mb - 0.00 in0.0 mm 0.09 in2.3 mm
07:00 AM 32.4°F0.2°C 31.9°F-0.1°C 98% 8.1 mph NNE13.0 kmh NNE 8.1 mph13.0 kmh 29.83 in1010.2 mb - 0.00 in0.0 mm 0.09 in2.3 mm
07:10 AM 32.4°F0.2°C 31.9°F-0.1°C 98% 8.1 mph NE13.0 kmh NE 10.4 mph16.7 kmh 29.82 in1009.8 mb - 0.01 in0.3 mm 0.10 in2.5 mm
07:15 AM 32.4°F0.2°C 31.9°F-0.1°C 98% 8.1 mph NE13.0 kmh NE 10.4 mph16.7 kmh 29.82 in1009.8 mb - 0.00 in0.0 mm 0.10 in2.5 mm
07:20 AM 32.4°F0.2°C 31.9°F-0.1°C 98% 6.9 mph NE11.1 kmh NE 10.4 mph16.7 kmh 29.82 in1009.8 mb - 0.00 in0.0 mm 0.10 in2.5 mm
07:25 AM 32.4°F0.2°C 31.9°F-0.1°C 98% 8.1 mph NE13.0 kmh NE 6.9 mph11.1 kmh 29.82 in1009.8 mb - 0.00 in0.0 mm 0.10 in2.5 mm
07:30 AM 32.4°F0.2°C 31.9°F-0.1°C 98% 8.1 mph N13.0 kmh N 11.5 mph18.5 kmh 29.82 in1009.8 mb - 0.00 in0.0 mm 0.10 in2.5 mm
07:35 AM 32.4°F0.2°C 31.9°F-0.1°C 98% 6.9 mph NE11.1 kmh NE 5.8 mph9.3 kmh 29.82 in1009.8 mb - 0.00 in0.0 mm 0.10 in2.5 mm
07:40 AM 32.4°F0.2°C 31.9°F-0.1°C 98% 6.9 mph NE11.1 kmh NE 11.5 mph18.5 kmh 29.81 in1009.5 mb - 0.00 in0.0 mm 0.10 in2.5 mm
07:45 AM 32.5°F0.3°C 32.0°F0.0°C 98% 6.9 mph NE11.1 kmh NE 9.2 mph14.8 kmh 29.81 in1009.5 mb - 0.00 in0.0 mm 0.10 in2.5 mm
07:50 AM 32.5°F0.3°C 32.0°F0.0°C 98% 6.9 mph N11.1 kmh N 8.1 mph13.0 kmh 29.80 in1009.1 mb - 0.01 in0.3 mm 0.11 in2.8 mm
07:55 AM 32.5°F0.3°C 32.0°F0.0°C 98% 5.8 mph NE9.3 kmh NE 4.6 mph7.4 kmh 29.80 in1009.1 mb - 0.00 in0.0 mm 0.11 in2.8 mm
08:00 AM 32.5°F0.3°C 32.0°F0.0°C 98% 5.8 mph N9.3 kmh N 4.6 mph7.4 kmh 29.80 in1009.1 mb - 0.00 in0.0 mm 0.11 in2.8 mm
08:10 AM 32.5°F0.3°C 32.0°F0.0°C 98% 4.6 mph NE7.4 kmh NE 6.9 mph11.1 kmh 29.80 in1009.1 mb - 0.00 in0.0 mm 0.11 in2.8 mm
08:15 AM 32.9°F0.5°C 32.4°F0.2°C 98% 5.8 mph NE9.3 kmh NE 8.1 mph13.0 kmh 29.80 in1009.1 mb - 0.00 in0.0 mm 0.11 in2.8 mm
08:20 AM 33.1°F0.6°C 32.6°F0.3°C 98% 4.6 mph NNE7.4 kmh NNE 8.1 mph13.0 kmh 29.80 in1009.1 mb - 0.01 in0.3 mm 0.12 in3.0 mm
08:25 AM 33.1°F0.6°C 32.6°F0.3°C 98% 5.8 mph NNE9.3 kmh NNE 3.5 mph5.6 kmh 29.79 in1008.8 mb - 0.01 in0.3 mm 0.12 in3.0 mm
08:30 AM 33.1°F0.6°C 32.6°F0.3°C 98% 4.6 mph NNE7.4 kmh NNE 9.2 mph14.8 kmh 29.79 in1008.8 mb - 0.00 in0.0 mm 0.12 in3.0 mm
08:35 AM 33.3°F0.7°C 32.8°F0.4°C 98% 6.9 mph NE11.1 kmh NE 9.2 mph14.8 kmh 29.79 in1008.8 mb - 0.00 in0.0 mm 0.12 in3.0 mm
08:40 AM 33.3°F0.7°C 32.8°F0.4°C 98% 5.8 mph NE9.3 kmh NE 6.9 mph11.1 kmh 29.78 in1008.5 mb - 0.00 in0.0 mm 0.12 in3.0 mm
08:45 AM 33.3°F0.7°C 32.8°F0.4°C 98% 5.8 mph NNE9.3 kmh NNE 9.2 mph14.8 kmh 29.77 in1008.1 mb - 0.01 in0.3 mm 0.13 in3.3 mm
08:50 AM 33.4°F0.8°C 32.9°F0.5°C 98% 5.8 mph NNE9.3 kmh NNE 3.5 mph5.6 kmh 29.77 in1008.1 mb - 0.00 in0.0 mm 0.13 in3.3 mm
08:55 AM 33.4°F0.8°C 32.9°F0.5°C 98% 5.8 mph NE9.3 kmh NE 6.9 mph11.1 kmh 29.77 in1008.1 mb - 0.00 in0.0 mm 0.13 in3.3 mm
09:00 AM 33.4°F0.8°C 32.9°F0.5°C 98% 4.6 mph NE7.4 kmh NE 3.5 mph5.6 kmh 29.77 in1008.1 mb - 0.00 in0.0 mm 0.13 in3.3 mm
09:10 AM 34.0°F1.1°C 33.5°F0.8°C 98% 5.8 mph NE9.3 kmh NE 5.8 mph9.3 kmh 29.77 in1008.1 mb - 0.02 in0.5 mm 0.15 in3.8 mm
09:15 AM 34.2°F1.2°C 33.7°F0.9°C 98% 5.8 mph NE9.3 kmh NE 4.6 mph7.4 kmh 29.77 in1008.1 mb - 0.00 in0.0 mm 0.15 in3.8 mm
09:20 AM 34.5°F1.4°C 34.0°F1.1°C 98% 5.8 mph NE9.3 kmh NE 4.6 mph7.4 kmh 29.77 in1008.1 mb - 0.01 in0.3 mm 0.16 in4.1 mm
09:25 AM 34.7°F1.5°C 34.2°F1.2°C 98% 5.8 mph NNE9.3 kmh NNE 9.2 mph14.8 kmh 29.77 in1008.1 mb - 0.00 in0.0 mm 0.16 in4.1 mm
09:30 AM 34.7°F1.5°C 34.2°F1.2°C 98% 5.8 mph NE9.3 kmh NE 6.9 mph11.1 kmh 29.77 in1008.1 mb - 0.01 in0.3 mm 0.17 in4.3 mm
09:35 AM 34.7°F1.5°C 34.2°F1.2°C 98% 5.8 mph NNE9.3 kmh NNE 5.8 mph9.3 kmh 29.75 in1007.5 mb - 0.00 in0.0 mm 0.17 in4.3 mm
09:40 AM 34.9°F1.6°C 34.4°F1.3°C 98% 5.8 mph NNE9.3 kmh NNE 9.2 mph14.8 kmh 29.75 in1007.5 mb - 0.01 in0.3 mm 0.18 in4.6 mm
09:45 AM 34.9°F1.6°C 34.4°F1.3°C 98% 5.8 mph NE9.3 kmh NE 6.9 mph11.1 kmh 29.75 in1007.5 mb - 0.01 in0.3 mm 0.19 in4.8 mm
09:50 AM 34.9°F1.6°C 34.4°F1.3°C 98% 5.8 mph NE9.3 kmh NE 5.8 mph9.3 kmh 29.76 in1007.8 mb - 0.01 in0.3 mm 0.20 in5.1 mm
09:55 AM 34.9°F1.6°C 34.4°F1.3°C 98% 4.6 mph E7.4 kmh E 5.8 mph9.3 kmh 29.76 in1007.8 mb - 0.01 in0.3 mm 0.21 in5.3 mm
10:00 AM 34.9°F1.6°C 34.4°F1.3°C 98% 4.6 mph ENE7.4 kmh ENE 9.2 mph14.8 kmh 29.76 in1007.8 mb - 0.01 in0.3 mm 0.22 in5.6 mm
10:10 AM 34.9°F1.6°C 34.4°F1.3°C 98% 5.8 mph NE9.3 kmh NE 8.1 mph13.0 kmh 29.75 in1007.5 mb - 0.02 in0.5 mm 0.24 in6.1 mm
10:15 AM 34.9°F1.6°C 34.4°F1.3°C 98% 5.8 mph W9.3 kmh W 10.4 mph16.7 kmh 29.75 in1007.5 mb - 0.01 in0.3 mm 0.25 in6.4 mm
10:20 AM 34.9°F1.6°C 34.4°F1.3°C 98% 6.9 mph NE11.1 kmh NE 10.4 mph16.7 kmh 29.75 in1007.5 mb - 0.02 in0.5 mm 0.27 in6.9 mm
10:25 AM 34.9°F1.6°C 34.4°F1.3°C 98% 4.6 mph NE7.4 kmh NE 5.8 mph9.3 kmh 29.74 in1007.1 mb - 0.02 in0.5 mm 0.29 in7.4 mm
10:30 AM 34.9°F1.6°C 34.4°F1.3°C 98% 4.6 mph NE7.4 kmh NE 5.8 mph9.3 kmh 29.74 in1007.1 mb - 0.02 in0.5 mm 0.30 in7.6 mm
10:35 AM 34.9°F1.6°C 34.4°F1.3°C 98% 5.8 mph NE9.3 kmh NE 4.6 mph7.4 kmh 29.73 in1006.8 mb - 0.02 in0.5 mm 0.31 in7.9 mm
10:40 AM 34.9°F1.6°C 34.4°F1.3°C 98% 5.8 mph NNE9.3 kmh NNE 5.8 mph9.3 kmh 29.72 in1006.4 mb - 0.02 in0.5 mm 0.33 in8.4 mm
10:45 AM 34.9°F1.6°C 34.4°F1.3°C 98% 5.8 mph NNE9.3 kmh NNE 8.1 mph13.0 kmh 29.71 in1006.1 mb - 0.02 in0.5 mm 0.34 in8.6 mm
10:50 AM 34.9°F1.6°C 34.4°F1.3°C 98% 5.8 mph NE9.3 kmh NE 10.4 mph16.7 kmh 29.70 in1005.8 mb - 0.02 in0.5 mm 0.35 in8.9 mm
10:55 AM 34.9°F1.6°C 34.4°F1.3°C 98% 6.9 mph N11.1 kmh N 11.5 mph18.5 kmh 29.70 in1005.8 mb - 0.01 in0.3 mm 0.36 in9.1 mm
11:00 AM 34.9°F1.6°C 34.4°F1.3°C 98% 6.9 mph E11.1 kmh E 8.1 mph13.0 kmh 29.70 in1005.8 mb - 0.01 in0.3 mm 0.37 in9.4 mm
11:10 AM 35.1°F1.7°C 34.6°F1.4°C 98% 6.9 mph NE11.1 kmh NE 6.9 mph11.1 kmh 29.69 in1005.4 mb - 0.01 in0.3 mm 0.38 in9.7 mm
11:15 AM 35.1°F1.7°C 34.6°F1.4°C 98% 5.8 mph NE9.3 kmh NE 10.4 mph16.7 kmh 29.68 in1005.1 mb - 0.01 in0.3 mm 0.39 in9.9 mm
11:20 AM 35.1°F1.7°C 34.0°F1.1°C 96% 6.9 mph NE11.1 kmh NE 5.8 mph9.3 kmh 29.66 in1004.4 mb - 0.00 in0.0 mm 0.39 in9.9 mm
11:25 AM 35.1°F1.7°C 34.0°F1.1°C 96% 5.8 mph NE9.3 kmh NE 6.9 mph11.1 kmh 29.65 in1004.1 mb - 0.00 in0.0 mm 0.39 in9.9 mm
11:30 AM 35.1°F1.7°C 34.0°F1.1°C 96% 8.1 mph NE13.0 kmh NE 10.4 mph16.7 kmh 29.65 in1004.1 mb - 0.00 in0.0 mm 0.39 in9.9 mm
11:35 AM 35.1°F1.7°C 34.0°F1.1°C 96% 8.1 mph NE13.0 kmh NE 8.1 mph13.0 kmh 29.65 in1004.1 mb - 0.00 in0.0 mm 0.39 in9.9 mm
11:40 AM 35.1°F1.7°C 34.0°F1.1°C 96% 5.8 mph NNE9.3 kmh NNE 11.5 mph18.5 kmh 29.67 in1004.7 mb - 0.00 in0.0 mm 0.39 in9.9 mm
11:45 AM 35.1°F1.7°C 34.0°F1.1°C 96% 6.9 mph E11.1 kmh E 11.5 mph18.5 kmh 29.67 in1004.7 mb - 0.00 in0.0 mm 0.39 in9.9 mm
11:50 AM 35.1°F1.7°C 34.0°F1.1°C 96% 5.8 mph ENE9.3 kmh ENE 5.8 mph9.3 kmh 29.68 in1005.1 mb - 0.00 in0.0 mm 0.39 in9.9 mm
11:55 AM 35.1°F1.7°C 34.0°F1.1°C 96% 6.9 mph ENE11.1 kmh ENE 6.9 mph11.1 kmh 29.68 in1005.1 mb - 0.00 in0.0 mm 0.39 in9.9 mm
12:00 PM 35.1°F1.7°C 34.0°F1.1°C 96% 5.8 mph ENE9.3 kmh ENE 9.2 mph14.8 kmh 29.67 in1004.7 mb - 0.00 in0.0 mm 0.39 in9.9 mm
12:10 PM 35.1°F1.7°C 34.0°F1.1°C 96% 5.8 mph ENE9.3 kmh ENE 6.9 mph11.1 kmh 29.66 in1004.4 mb - 0.01 in0.3 mm 0.40 in10.2 mm
12:15 PM 34.9°F1.6°C 33.9°F1.1°C 96% 5.8 mph N9.3 kmh N 8.1 mph13.0 kmh 29.65 in1004.1 mb - 0.01 in0.3 mm 0.40 in10.2 mm
12:20 PM 34.9°F1.6°C 33.9°F1.1°C 96% 6.9 mph NNE11.1 kmh NNE 5.8 mph9.3 kmh 29.64 in1003.7 mb - 0.01 in0.3 mm 0.41 in10.4 mm
12:25 PM 34.9°F1.6°C 33.9°F1.1°C 96% 5.8 mph NE9.3 kmh NE 11.5 mph18.5 kmh 29.64 in1003.7 mb - 0.00 in0.0 mm 0.41 in10.4 mm
12:30 PM 34.9°F1.6°C 33.9°F1.1°C 96% 5.8 mph NE9.3 kmh NE 10.4 mph16.7 kmh 29.64 in1003.7 mb - 0.00 in0.0 mm 0.41 in10.4 mm
12:35 PM 34.7°F1.5°C 33.7°F0.9°C 96% 5.8 mph ENE9.3 kmh ENE 8.1 mph13.0 kmh 29.64 in1003.7 mb - 0.00 in0.0 mm 0.41 in10.4 mm
12:40 PM 34.7°F1.5°C 33.7°F0.9°C 96% 5.8 mph NE9.3 kmh NE 9.2 mph14.8 kmh 29.63 in1003.4 mb - 0.00 in0.0 mm 0.41 in10.4 mm
12:45 PM 34.7°F1.5°C 33.7°F0.9°C 96% 6.9 mph E11.1 kmh E 4.6 mph7.4 kmh 29.63 in1003.4 mb - 0.00 in0.0 mm 0.41 in10.4 mm
12:50 PM 34.5°F1.4°C 33.5°F0.8°C 96% 5.8 mph NW9.3 kmh NW 11.5 mph18.5 kmh 29.63 in1003.4 mb - 0.00 in0.0 mm 0.41 in10.4 mm
12:55 PM 34.5°F1.4°C 33.5°F0.8°C 96% 6.9 mph NE11.1 kmh NE 5.8 mph9.3 kmh 29.62 in1003.0 mb - 0.00 in0.0 mm 0.41 in10.4 mm
01:00 PM 34.5°F1.4°C 33.5°F0.8°C 96% 4.6 mph E7.4 kmh E 4.6 mph7.4 kmh 29.62 in1003.0 mb - 0.00 in0.0 mm 0.41 in10.4 mm
01:10 PM 34.2°F1.2°C 33.1°F0.6°C 96% 6.9 mph NNE11.1 kmh NNE 9.2 mph14.8 kmh 29.61 in1002.7 mb - 0.01 in0.3 mm 0.42 in10.7 mm
01:15 PM 34.2°F1.2°C 33.1°F0.6°C 96% 5.8 mph NE9.3 kmh NE 4.6 mph7.4 kmh 29.62 in1003.0 mb - 0.00 in0.0 mm 0.42 in10.7 mm
01:20 PM 34.2°F1.2°C 33.1°F0.6°C 96% 5.8 mph NNE9.3 kmh NNE 5.8 mph9.3 kmh 29.61 in1002.7 mb - 0.00 in0.0 mm 0.42 in10.7 mm
01:25 PM 34.2°F1.2°C 33.1°F0.6°C 96% 5.8 mph NNE9.3 kmh NNE 8.1 mph13.0 kmh 29.61 in1002.7 mb - 0.00 in0.0 mm 0.42 in10.7 mm
01:30 PM 34.2°F1.2°C 33.1°F0.6°C 96% 5.8 mph N9.3 kmh N 4.6 mph7.4 kmh 29.60 in1002.4 mb - 0.00 in0.0 mm 0.42 in10.7 mm
01:35 PM 34.2°F1.2°C 33.1°F0.6°C 96% 4.6 mph NE7.4 kmh NE 4.6 mph7.4 kmh 29.60 in1002.4 mb - 0.00 in0.0 mm 0.42 in10.7 mm
01:40 PM 34.0°F1.1°C 33.0°F0.6°C 96% 5.8 mph NNE9.3 kmh NNE 5.8 mph9.3 kmh 29.60 in1002.4 mb - 0.00 in0.0 mm 0.42 in10.7 mm
01:45 PM 34.0°F1.1°C 33.0°F0.6°C 96% 5.8 mph NE9.3 kmh NE 8.1 mph13.0 kmh 29.60 in1002.4 mb - 0.01 in0.3 mm 0.43 in10.9 mm
01:50 PM 33.8°F1.0°C 32.8°F0.4°C 96% 6.9 mph NNE11.1 kmh NNE 9.2 mph14.8 kmh 29.60 in1002.4 mb - 0.01 in0.3 mm 0.43 in10.9 mm
01:55 PM 33.8°F1.0°C 32.8°F0.4°C 96% 8.1 mph NE13.0 kmh NE 11.5 mph18.5 kmh 29.59 in1002.0 mb - 0.00 in0.0 mm 0.43 in10.9 mm
02:00 PM 33.4°F0.8°C 32.4°F0.2°C 96% 6.9 mph NE11.1 kmh NE 11.5 mph18.5 kmh 29.57 in1001.4 mb - 0.00 in0.0 mm 0.43 in10.9 mm
02:10 PM 33.4°F0.8°C 32.4°F0.2°C 96% 8.1 mph NE13.0 kmh NE 6.9 mph11.1 kmh 29.57 in1001.4 mb - 0.01 in0.3 mm 0.44 in11.2 mm
02:15 PM 33.4°F0.8°C 32.4°F0.2°C 96% 4.6 mph NE7.4 kmh NE 5.8 mph9.3 kmh 29.57 in1001.4 mb - 0.00 in0.0 mm 0.44 in11.2 mm
02:20 PM 33.4°F0.8°C 32.4°F0.2°C 96% 5.8 mph NE9.3 kmh NE 6.9 mph11.1 kmh 29.57 in1001.4 mb - 0.00 in0.0 mm 0.44 in11.2 mm
02:25 PM 33.4°F0.8°C 32.4°F0.2°C 96% 5.8 mph NE9.3 kmh NE 5.8 mph9.3 kmh 29.56 in1001.0 mb - 0.00 in0.0 mm 0.44 in11.2 mm
02:30 PM 33.4°F0.8°C 32.4°F0.2°C 96% 5.8 mph NE9.3 kmh NE 6.9 mph11.1 kmh 29.57 in1001.4 mb - 0.00 in0.0 mm 0.44 in11.2 mm
02:35 PM 33.3°F0.7°C 32.2°F0.1°C 96% 4.6 mph NNE7.4 kmh NNE 6.9 mph11.1 kmh 29.56 in1001.0 mb - 0.01 in0.3 mm 0.45 in11.4 mm
02:40 PM 33.3°F0.7°C 32.2°F0.1°C 96% 5.8 mph NE9.3 kmh NE 4.6 mph7.4 kmh 29.57 in1001.4 mb - 0.00 in0.0 mm 0.45 in11.4 mm
02:45 PM 33.3°F0.7°C 32.2°F0.1°C 96% 5.8 mph E9.3 kmh E 4.6 mph7.4 kmh 29.57 in1001.4 mb - 0.00 in0.0 mm 0.45 in11.4 mm
02:50 PM 33.3°F0.7°C 32.2°F0.1°C 96% 5.8 mph NNE9.3 kmh NNE 5.8 mph9.3 kmh 29.57 in1001.4 mb - 0.00 in0.0 mm 0.45 in11.4 mm
02:55 PM 33.3°F0.7°C 32.2°F0.1°C 96% 4.6 mph NE7.4 kmh NE 8.1 mph13.0 kmh 29.57 in1001.4 mb - 0.00 in0.0 mm 0.45 in11.4 mm
03:00 PM 33.1°F0.6°C 32.1°F0.1°C 96% 5.8 mph NE9.3 kmh NE 9.2 mph14.8 kmh 29.56 in1001.0 mb - 0.00 in0.0 mm 0.45 in11.4 mm
03:10 PM 32.9°F0.5°C 31.9°F-0.1°C 96% 5.8 mph NE9.3 kmh NE 3.5 mph5.6 kmh 29.56 in1001.0 mb - 0.01 in0.3 mm 0.46 in11.7 mm
03:15 PM 32.9°F0.5°C 31.9°F-0.1°C 96% 4.6 mph NE7.4 kmh NE 8.1 mph13.0 kmh 29.57 in1001.4 mb - 0.00 in0.0 mm 0.46 in11.7 mm
03:20 PM 32.5°F0.3°C 31.5°F-0.3°C 96% 4.6 mph NNE7.4 kmh NNE 5.8 mph9.3 kmh 29.57 in1001.4 mb - 0.01 in0.3 mm 0.47 in11.9 mm
03:25 PM 32.5°F0.3°C 31.5°F-0.3°C 96% 4.6 mph NE7.4 kmh NE 4.6 mph7.4 kmh 29.57 in1001.4 mb - 0.01 in0.3 mm 0.48 in12.2 mm
03:30 PM 32.5°F0.3°C 31.5°F-0.3°C 96% 3.5 mph NW5.6 kmh NW 3.5 mph5.6 kmh 29.57 in1001.4 mb - 0.02 in0.5 mm 0.49 in12.4 mm
03:35 PM 32.5°F0.3°C 31.5°F-0.3°C 96% 4.6 mph N7.4 kmh N 5.8 mph9.3 kmh 29.57 in1001.4 mb - 0.01 in0.3 mm 0.49 in12.4 mm
03:40 PM 32.5°F0.3°C 31.5°F-0.3°C 96% 4.6 mph NNE7.4 kmh NNE 8.1 mph13.0 kmh 29.58 in1001.7 mb - 0.01 in0.3 mm 0.50 in12.7 mm
03:45 PM 32.5°F0.3°C 31.5°F-0.3°C 96% 4.6 mph NNE7.4 kmh NNE 3.5 mph5.6 kmh 29.58 in1001.7 mb - 0.00 in0.0 mm 0.50 in12.7 mm
03:50 PM 32.5°F0.3°C 31.5°F-0.3°C 96% 4.6 mph NNE7.4 kmh NNE 9.2 mph14.8 kmh 29.58 in1001.7 mb - 0.00 in0.0 mm 0.50 in12.7 mm
03:55 PM 32.5°F0.3°C 31.5°F-0.3°C 96% 4.6 mph NNE7.4 kmh NNE 5.8 mph9.3 kmh 29.58 in1001.7 mb - 0.00 in0.0 mm 0.50 in12.7 mm
04:00 PM 32.5°F0.3°C 31.5°F-0.3°C 96% 5.8 mph NNE9.3 kmh NNE 5.8 mph9.3 kmh 29.57 in1001.4 mb - 0.01 in0.3 mm 0.51 in13.0 mm
04:10 PM 32.2°F0.1°C 31.2°F-0.4°C 96% 8.1 mph NE13.0 kmh NE 6.9 mph11.1 kmh 29.59 in1002.0 mb - 0.01 in0.3 mm 0.51 in13.0 mm
04:15 PM 32.2°F0.1°C 31.2°F-0.4°C 96% 6.9 mph NE11.1 kmh NE 10.4 mph16.7 kmh 29.59 in1002.0 mb - 0.00 in0.0 mm 0.51 in13.0 mm
04:20 PM 32.2°F0.1°C 31.2°F-0.4°C 96% 6.9 mph NNE11.1 kmh NNE 10.4 mph16.7 kmh 29.58 in1001.7 mb - 0.00 in0.0 mm 0.51 in13.0 mm
04:25 PM 32.2°F0.1°C 31.2°F-0.4°C 96% 6.9 mph NE11.1 kmh NE 9.2 mph14.8 kmh 29.58 in1001.7 mb - 0.00 in0.0 mm 0.51 in13.0 mm
04:30 PM 32.0°F0.0°C 31.0°F-0.6°C 96% 6.9 mph N11.1 kmh N 6.9 mph11.1 kmh 29.58 in1001.7 mb - 0.00 in0.0 mm 0.51 in13.0 mm
04:35 PM 31.8°F-0.1°C 30.8°F-0.7°C 96% 5.8 mph NNE9.3 kmh NNE 5.8 mph9.3 kmh 29.58 in1001.7 mb - 0.00 in0.0 mm 0.51 in13.0 mm
04:40 PM 31.8°F-0.1°C 30.8°F-0.7°C 96% 5.8 mph N9.3 kmh N 10.4 mph16.7 kmh 29.58 in1001.7 mb - 0.00 in0.0 mm 0.51 in13.0 mm
04:45 PM 31.8°F-0.1°C 30.8°F-0.7°C 96% 5.8 mph N9.3 kmh N 8.1 mph13.0 kmh 29.58 in1001.7 mb - 0.00 in0.0 mm 0.51 in13.0 mm
04:50 PM 31.8°F-0.1°C 30.8°F-0.7°C 96% 5.8 mph N9.3 kmh N 11.5 mph18.5 kmh 29.58 in1001.7 mb - 0.00 in0.0 mm 0.51 in13.0 mm
04:55 PM 31.8°F-0.1°C 30.8°F-0.7°C 96% 5.8 mph NNE9.3 kmh NNE 6.9 mph11.1 kmh 29.60 in1002.4 mb - 0.00 in0.0 mm 0.51 in13.0 mm
05:00 PM 31.6°F-0.2°C 30.6°F-0.8°C 96% 5.8 mph N9.3 kmh N 6.9 mph11.1 kmh 29.59 in1002.0 mb - 0.00 in0.0 mm 0.51 in13.0 mm
05:10 PM 31.6°F-0.2°C 30.6°F-0.8°C 96% 8.1 mph N13.0 kmh N 10.4 mph16.7 kmh 29.59 in1002.0 mb - 0.00 in0.0 mm 0.51 in13.0 mm
05:15 PM 31.6°F-0.2°C 30.6°F-0.8°C 96% 8.1 mph NE13.0 kmh NE 13.8 mph22.2 kmh 29.59 in1002.0 mb - 0.00 in0.0 mm 0.51 in13.0 mm
05:20 PM 31.6°F-0.2°C 30.6°F-0.8°C 96% 5.8 mph NW9.3 kmh NW 5.8 mph9.3 kmh 29.59 in1002.0 mb - 0.00 in0.0 mm 0.51 in13.0 mm
05:25 PM 31.5°F-0.3°C 30.5°F-0.8°C 96% 5.8 mph NE9.3 kmh NE 8.1 mph13.0 kmh 29.58 in1001.7 mb - 0.00 in0.0 mm 0.51 in13.0 mm
05:30 PM 31.5°F-0.3°C 30.5°F-0.8°C 96% 6.9 mph N11.1 kmh N 9.2 mph14.8 kmh 29.60 in1002.4 mb - 0.00 in0.0 mm 0.51 in13.0 mm
05:35 PM 31.5°F-0.3°C 30.5°F-0.8°C 96% 6.9 mph NW11.1 kmh NW 8.1 mph13.0 kmh 29.58 in1001.7 mb - 0.00 in0.0 mm 0.51 in13.0 mm
05:40 PM 31.3°F-0.4°C 30.3°F-0.9°C 96% 8.1 mph N13.0 kmh N 11.5 mph18.5 kmh 29.58 in1001.7 mb - 0.00 in0.0 mm 0.51 in13.0 mm
05:45 PM 31.3°F-0.4°C 30.3°F-0.9°C 96% 6.9 mph NNW11.1 kmh NNW 11.5 mph18.5 kmh 29.58 in1001.7 mb - 0.01 in0.3 mm 0.52 in13.2 mm
05:50 PM 31.3°F-0.4°C 30.3°F-0.9°C 96% 6.9 mph NNE11.1 kmh NNE 9.2 mph14.8 kmh 29.60 in1002.4 mb - 0.01 in0.3 mm 0.52 in13.2 mm
05:55 PM 31.1°F-0.5°C 30.1°F-1.1°C 96% 8.1 mph N13.0 kmh N 16.1 mph25.9 kmh 29.60 in1002.4 mb - 0.00 in0.0 mm 0.52 in13.2 mm
06:00 PM 31.1°F-0.5°C 30.1°F-1.1°C 96% 8.1 mph N13.0 kmh N 11.5 mph18.5 kmh 29.60 in1002.4 mb - 0.00 in0.0 mm 0.52 in13.2 mm
06:10 PM 31.1°F-0.5°C 30.1°F-1.1°C 96% 9.2 mph N14.8 kmh N 11.5 mph18.5 kmh 29.60 in1002.4 mb - 0.00 in0.0 mm 0.52 in13.2 mm
06:15 PM 31.1°F-0.5°C 30.1°F-1.1°C 96% 9.2 mph NNE14.8 kmh NNE 11.5 mph18.5 kmh 29.59 in1002.0 mb - 0.00 in0.0 mm 0.52 in13.2 mm
06:20 PM 30.7°F-0.7°C 29.7°F-1.3°C 96% 9.2 mph NW14.8 kmh NW 12.7 mph20.4 kmh 29.59 in1002.0 mb - 0.00 in0.0 mm 0.52 in13.2 mm
06:25 PM 30.7°F-0.7°C 29.7°F-1.3°C 96% 9.2 mph NW14.8 kmh NW 11.5 mph18.5 kmh 29.59 in1002.0 mb - 0.00 in0.0 mm 0.52 in13.2 mm
06:30 PM 30.7°F-0.7°C 29.7°F-1.3°C 96% 9.2 mph N14.8 kmh N 11.5 mph18.5 kmh 29.59 in1002.0 mb - 0.00 in0.0 mm 0.52 in13.2 mm
06:35 PM 30.7°F-0.7°C 29.7°F-1.3°C 96% 8.1 mph SSW13.0 kmh SSW 13.8 mph22.2 kmh 29.59 in1002.0 mb - 0.00 in0.0 mm 0.52 in13.2 mm
06:40 PM 30.7°F-0.7°C 29.7°F-1.3°C 96% 10.4 mph NE16.7 kmh NE 12.7 mph20.4 kmh 29.58 in1001.7 mb - 0.00 in0.0 mm 0.52 in13.2 mm
06:45 PM 30.6°F-0.8°C 29.6°F-1.3°C 96% 10.4 mph NW16.7 kmh NW 15.0 mph24.1 kmh 29.59 in1002.0 mb - 0.00 in0.0 mm 0.52 in13.2 mm
06:50 PM 30.5°F-0.8°C 29.5°F-1.4°C 96% 9.2 mph NNE14.8 kmh NNE 13.8 mph22.2 kmh 29.59 in1002.0 mb - 0.00 in0.0 mm 0.52 in13.2 mm
06:55 PM 30.4°F-0.9°C 29.4°F-1.4°C 96% 9.2 mph NNE14.8 kmh NNE 12.7 mph20.4 kmh 29.59 in1002.0 mb - 0.00 in0.0 mm 0.52 in13.2 mm
07:00 PM 30.4°F-0.9°C 29.4°F-1.4°C 96% 8.1 mph E13.0 kmh E 6.9 mph11.1 kmh 29.59 in1002.0 mb - 0.00 in0.0 mm 0.52 in13.2 mm
07:10 PM 30.0°F-1.1°C 29.0°F-1.7°C 96% 9.2 mph NE14.8 kmh NE 16.1 mph25.9 kmh 29.58 in1001.7 mb - 0.00 in0.0 mm 0.52 in13.2 mm
07:15 PM 30.0°F-1.1°C 29.0°F-1.7°C 96% 9.2 mph N14.8 kmh N 8.1 mph13.0 kmh 29.59 in1002.0 mb - 0.00 in0.0 mm 0.52 in13.2 mm
07:20 PM 30.0°F-1.1°C 29.0°F-1.7°C 96% 9.2 mph NNE14.8 kmh NNE 19.6 mph31.5 kmh 29.60 in1002.4 mb - 0.00 in0.0 mm 0.52 in13.2 mm
07:25 PM 30.0°F-1.1°C 29.0°F-1.7°C 96% 8.1 mph NE13.0 kmh NE 10.4 mph16.7 kmh 29.60 in1002.4 mb - 0.00 in0.0 mm 0.52 in13.2 mm
07:30 PM 30.0°F-1.1°C 29.0°F-1.7°C 96% 8.1 mph NNE13.0 kmh NNE 10.4 mph16.7 kmh 29.60 in1002.4 mb - 0.00 in0.0 mm 0.52 in13.2 mm
07:35 PM 30.0°F-1.1°C 29.0°F-1.7°C 96% 8.1 mph NNE13.0 kmh NNE 11.5 mph18.5 kmh 29.60 in1002.4 mb - 0.00 in0.0 mm 0.52 in13.2 mm
07:40 PM 30.0°F-1.1°C 29.0°F-1.7°C 96% 9.2 mph NE14.8 kmh NE 12.7 mph20.4 kmh 29.59 in1002.0 mb - 0.00 in0.0 mm 0.52 in13.2 mm
07:45 PM 30.0°F-1.1°C 29.0°F-1.7°C 96% 6.9 mph NW11.1 kmh NW 8.1 mph13.0 kmh 29.58 in1001.7 mb - 0.00 in0.0 mm 0.52 in13.2 mm
07:50 PM 30.0°F-1.1°C 29.0°F-1.7°C 96% 5.8 mph NNE9.3 kmh NNE 5.8 mph9.3 kmh 29.59 in1002.0 mb - 0.00 in0.0 mm 0.52 in13.2 mm
07:55 PM 29.8°F-1.2°C 28.8°F-1.8°C 96% 8.1 mph NNE13.0 kmh NNE 8.1 mph13.0 kmh 29.58 in1001.7 mb - 0.00 in0.0 mm 0.52 in13.2 mm
08:00 PM 29.8°F-1.2°C 28.8°F-1.8°C 96% 6.9 mph NNE11.1 kmh NNE 10.4 mph16.7 kmh 29.59 in1002.0 mb - 0.00 in0.0 mm 0.52 in13.2 mm
08:10 PM 29.8°F-1.2°C 28.8°F-1.8°C 96% 6.9 mph N11.1 kmh N 8.1 mph13.0 kmh 29.58 in1001.7 mb - 0.00 in0.0 mm 0.52 in13.2 mm
08:15 PM 29.8°F-1.2°C 28.8°F-1.8°C 96% 8.1 mph NE13.0 kmh NE 9.2 mph14.8 kmh 29.58 in1001.7 mb - 0.00 in0.0 mm 0.52 in13.2 mm
08:20 PM 29.8°F-1.2°C 28.8°F-1.8°C 96% 6.9 mph NNE11.1 kmh NNE 11.5 mph18.5 kmh 29.57 in1001.4 mb - 0.00 in0.0 mm 0.52 in13.2 mm
08:25 PM 29.8°F-1.2°C 28.8°F-1.8°C 96% 8.1 mph NNE13.0 kmh NNE 9.2 mph14.8 kmh 29.58 in1001.7 mb - 0.00 in0.0 mm 0.52 in13.2 mm
08:30 PM 29.8°F-1.2°C 28.8°F-1.8°C 96% 6.9 mph NE11.1 kmh NE 5.8 mph9.3 kmh 29.57 in1001.4 mb - 0.00 in0.0 mm 0.52 in13.2 mm
08:35 PM 29.8°F-1.2°C 28.8°F-1.8°C 96% 6.9 mph N11.1 kmh N 9.2 mph14.8 kmh 29.58 in1001.7 mb - 0.00 in0.0 mm 0.52 in13.2 mm
08:40 PM 29.8°F-1.2°C 28.8°F-1.8°C 96% 6.9 mph NNW11.1 kmh NNW 11.5 mph18.5 kmh 29.57 in1001.4 mb - 0.00 in0.0 mm 0.52 in13.2 mm
08:45 PM 29.8°F-1.2°C 28.8°F-1.8°C 96% 8.1 mph NE13.0 kmh NE 11.5 mph18.5 kmh 29.57 in1001.4 mb - 0.00 in0.0 mm 0.52 in13.2 mm
08:50 PM 29.7°F-1.3°C 28.7°F-1.8°C 96% 8.1 mph NNE13.0 kmh NNE 6.9 mph11.1 kmh 29.57 in1001.4 mb - 0.00 in0.0 mm 0.52 in13.2 mm
08:55 PM 29.7°F-1.3°C 28.7°F-1.8°C 96% 8.1 mph NE13.0 kmh NE 10.4 mph16.7 kmh 29.57 in1001.4 mb - 0.00 in0.0 mm 0.52 in13.2 mm
09:00 PM 29.7°F-1.3°C 28.7°F-1.8°C 96% 8.1 mph N13.0 kmh N 12.7 mph20.4 kmh 29.57 in1001.4 mb - 0.00 in0.0 mm 0.52 in13.2 mm
09:10 PM 29.7°F-1.3°C 28.7°F-1.8°C 96% 8.1 mph N13.0 kmh N 12.7 mph20.4 kmh 29.56 in1001.0 mb - 0.00 in0.0 mm 0.52 in13.2 mm
09:15 PM 29.5°F-1.4°C 28.5°F-1.9°C 96% 9.2 mph N14.8 kmh N 9.2 mph14.8 kmh 29.57 in1001.4 mb - 0.00 in0.0 mm 0.52 in13.2 mm
09:20 PM 29.5°F-1.4°C 28.5°F-1.9°C 96% 6.9 mph N11.1 kmh N 9.2 mph14.8 kmh 29.57 in1001.4 mb - 0.00 in0.0 mm 0.52 in13.2 mm
09:25 PM 29.5°F-1.4°C 28.5°F-1.9°C 96% 9.2 mph NE14.8 kmh NE 11.5 mph18.5 kmh 29.57 in1001.4 mb - 0.00 in0.0 mm 0.52 in13.2 mm
09:30 PM 29.5°F-1.4°C 28.5°F-1.9°C 96% 6.9 mph NNE11.1 kmh NNE 10.4 mph16.7 kmh 29.57 in1001.4 mb - 0.00 in0.0 mm 0.52 in13.2 mm
09:35 PM 29.1°F-1.6°C 28.1°F-2.2°C 96% 8.1 mph NNE13.0 kmh NNE 8.1 mph13.0 kmh 29.57 in1001.4 mb - 0.00 in0.0 mm 0.52 in13.2 mm
09:40 PM 29.1°F-1.6°C 28.1°F-2.2°C 96% 5.8 mph N9.3 kmh N 8.1 mph13.0 kmh 29.57 in1001.4 mb - 0.00 in0.0 mm 0.52 in13.2 mm
09:45 PM 29.1°F-1.6°C 28.1°F-2.2°C 96% 8.1 mph N13.0 kmh N 8.1 mph13.0 kmh 29.57 in1001.4 mb - 0.00 in0.0 mm 0.52 in13.2 mm
09:50 PM 29.1°F-1.6°C 28.1°F-2.2°C 96% 6.9 mph NNE11.1 kmh NNE 10.4 mph16.7 kmh 29.57 in1001.4 mb - 0.00 in0.0 mm 0.52 in13.2 mm
09:55 PM 29.1°F-1.6°C 28.1°F-2.2°C 96% 8.1 mph NE13.0 kmh NE 5.8 mph9.3 kmh 29.56 in1001.0 mb - 0.00 in0.0 mm 0.52 in13.2 mm
10:00 PM 29.1°F-1.6°C 28.1°F-2.2°C 96% 8.1 mph NE13.0 kmh NE 5.8 mph9.3 kmh 29.56 in1001.0 mb - 0.00 in0.0 mm 0.52 in13.2 mm
10:10 PM 29.1°F-1.6°C 28.1°F-2.2°C 96% 6.9 mph E11.1 kmh E 9.2 mph14.8 kmh 29.57 in1001.4 mb - 0.00 in0.0 mm 0.52 in13.2 mm
10:15 PM 29.1°F-1.6°C 28.1°F-2.2°C 96% 9.2 mph N14.8 kmh N 13.8 mph22.2 kmh 29.57 in1001.4 mb - 0.00 in0.0 mm 0.52 in13.2 mm
10:20 PM 29.1°F-1.6°C 28.1°F-2.2°C 96% 6.9 mph NNW11.1 kmh NNW 5.8 mph9.3 kmh 29.57 in1001.4 mb - 0.00 in0.0 mm 0.52 in13.2 mm
10:25 PM 29.1°F-1.6°C 28.1°F-2.2°C 96% 6.9 mph NNE11.1 kmh NNE 6.9 mph11.1 kmh 29.57 in1001.4 mb - 0.00 in0.0 mm 0.52 in13.2 mm
10:30 PM 29.1°F-1.6°C 28.1°F-2.2°C 96% 8.1 mph N13.0 kmh N 13.8 mph22.2 kmh 29.57 in1001.4 mb - 0.00 in0.0 mm 0.52 in13.2 mm
10:35 PM 29.1°F-1.6°C 28.1°F-2.2°C 96% 8.1 mph NE13.0 kmh NE 10.4 mph16.7 kmh 29.57 in1001.4 mb - 0.00 in0.0 mm 0.52 in13.2 mm
10:40 PM 29.1°F-1.6°C 28.1°F-2.2°C 96% 8.1 mph NNE13.0 kmh NNE 11.5 mph18.5 kmh 29.57 in1001.4 mb - 0.00 in0.0 mm 0.52 in13.2 mm
10:45 PM 29.1°F-1.6°C 28.1°F-2.2°C 96% 6.9 mph N11.1 kmh N 9.2 mph14.8 kmh 29.56 in1001.0 mb - 0.00 in0.0 mm 0.52 in13.2 mm
10:50 PM 28.8°F-1.8°C 27.8°F-2.3°C 96% 8.1 mph NE13.0 kmh NE 12.7 mph20.4 kmh 29.56 in1001.0 mb - 0.00 in0.0 mm 0.52 in13.2 mm
10:55 PM 28.8°F-1.8°C 27.8°F-2.3°C 96% 9.2 mph N14.8 kmh N 12.7 mph20.4 kmh 29.55 in1000.7 mb - 0.00 in0.0 mm 0.52 in13.2 mm
11:00 PM 28.8°F-1.8°C 27.8°F-2.3°C 96% 5.8 mph N9.3 kmh N 11.5 mph18.5 kmh 29.56 in1001.0 mb - 0.00 in0.0 mm 0.52 in13.2 mm
11:10 PM 28.8°F-1.8°C 27.8°F-2.3°C 96% 8.1 mph NNE13.0 kmh NNE 6.9 mph11.1 kmh 29.57 in1001.4 mb - 0.00 in0.0 mm 0.52 in13.2 mm
11:15 PM 28.8°F-1.8°C 27.8°F-2.3°C 96% 8.1 mph N13.0 kmh N 16.1 mph25.9 kmh 29.57 in1001.4 mb - 0.00 in0.0 mm 0.52 in13.2 mm
11:20 PM 28.8°F-1.8°C 27.8°F-2.3°C 96% 9.2 mph NNW14.8 kmh NNW 11.5 mph18.5 kmh 29.57 in1001.4 mb - 0.00 in0.0 mm 0.52 in13.2 mm
11:25 PM 28.8°F-1.8°C 27.8°F-2.3°C 96% 4.6 mph N7.4 kmh N 9.2 mph14.8 kmh 29.56 in1001.0 mb - 0.00 in0.0 mm 0.52 in13.2 mm
11:30 PM 28.6°F-1.9°C 27.6°F-2.4°C 96% 9.2 mph NNW14.8 kmh NNW 13.8 mph22.2 kmh 29.56 in1001.0 mb - 0.00 in0.0 mm 0.52 in13.2 mm
11:35 PM 28.6°F-1.9°C 27.6°F-2.4°C 96% 6.9 mph NNE11.1 kmh NNE 12.7 mph20.4 kmh 29.57 in1001.4 mb - 0.00 in0.0 mm 0.52 in13.2 mm
11:40 PM 28.6°F-1.9°C 27.6°F-2.4°C 96% 6.9 mph N11.1 kmh N 8.1 mph13.0 kmh 29.57 in1001.4 mb - 0.00 in0.0 mm 0.52 in13.2 mm
11:45 PM 28.6°F-1.9°C 27.6°F-2.4°C 96% 6.9 mph NE11.1 kmh NE 8.1 mph13.0 kmh 29.57 in1001.4 mb - 0.00 in0.0 mm 0.52 in13.2 mm
11:50 PM 28.6°F-1.9°C 27.6°F-2.4°C 96% 6.9 mph 11.1 kmh 9.2 mph14.8 kmh 29.57 in1001.4 mb - 0.00 in0.0 mm 0.52 in13.2 mm
11:55 PM 28.2°F-2.1°C 27.0°F-2.8°C 95% 9.2 mph NE14.8 kmh NE 5.8 mph9.3 kmh 29.56 in1001.0 mb - 0.00 in0.0 mm 0.52 in13.2 mm